sensor_id;sensor_type;location;lat;lon;timestamp;P1;durP1;ratioP1;P2;durP2;ratioP2
12824;SDS011;6478;50.984;11.044;2022-07-29T00:02:17;2.03;;;1.73;;
12824;SDS011;6478;50.984;11.044;2022-07-29T00:04:43;2.10;;;1.90;;
12824;SDS011;6478;50.984;11.044;2022-07-29T00:07:08;2.47;;;2.00;;
12824;SDS011;6478;50.984;11.044;2022-07-29T00:09:34;2.57;;;1.80;;
12824;SDS011;6478;50.984;11.044;2022-07-29T00:12:01;2.07;;;1.60;;
12824;SDS011;6478;50.984;11.044;2022-07-29T00:14:27;1.57;;;1.30;;
12824;SDS011;6478;50.984;11.044;2022-07-29T00:16:56;1.47;;;1.30;;
12824;SDS011;6478;50.984;11.044;2022-07-29T00:19:22;1.43;;;1.13;;
12824;SDS011;6478;50.984;11.044;2022-07-29T00:21:48;1.50;;;1.40;;
12824;SDS011;6478;50.984;11.044;2022-07-29T00:24:14;1.73;;;1.10;;
12824;SDS011;6478;50.984;11.044;2022-07-29T00:26:40;1.10;;;0.80;;
12824;SDS011;6478;50.984;11.044;2022-07-29T00:29:06;1.80;;;1.10;;
12824;SDS011;6478;50.984;11.044;2022-07-29T00:31:32;2.97;;;1.60;;
12824;SDS011;6478;50.984;11.044;2022-07-29T00:33:58;3.07;;;1.13;;
12824;SDS011;6478;50.984;11.044;2022-07-29T00:36:24;2.97;;;1.30;;
12824;SDS011;6478;50.984;11.044;2022-07-29T00:38:50;1.70;;;1.10;;
12824;SDS011;6478;50.984;11.044;2022-07-29T00:41:17;1.63;;;1.13;;
12824;SDS011;6478;50.984;11.044;2022-07-29T00:43:43;1.67;;;1.20;;
12824;SDS011;6478;50.984;11.044;2022-07-29T00:46:09;1.67;;;1.00;;
12824;SDS011;6478;50.984;11.044;2022-07-29T00:48:35;1.40;;;1.00;;
12824;SDS011;6478;50.984;11.044;2022-07-29T00:51:02;0.97;;;0.80;;
12824;SDS011;6478;50.984;11.044;2022-07-29T00:53:29;2.37;;;1.30;;
12824;SDS011;6478;50.984;11.044;2022-07-29T00:55:55;0.83;;;0.80;;
12824;SDS011;6478;50.984;11.044;2022-07-29T00:58:22;1.40;;;1.10;;
12824;SDS011;6478;50.984;11.044;2022-07-29T01:00:48;0.93;;;0.90;;
12824;SDS011;6478;50.984;11.044;2022-07-29T01:03:14;3.17;;;1.00;;
12824;SDS011;6478;50.984;11.044;2022-07-29T01:05:41;1.00;;;0.90;;
12824;SDS011;6478;50.984;11.044;2022-07-29T01:08:07;1.70;;;1.00;;
12824;SDS011;6478;50.984;11.044;2022-07-29T01:10:33;2.20;;;0.93;;
12824;SDS011;6478;50.984;11.044;2022-07-29T01:13:01;1.77;;;1.23;;
12824;SDS011;6478;50.984;11.044;2022-07-29T01:15:27;2.70;;;1.20;;
12824;SDS011;6478;50.984;11.044;2022-07-29T01:18:39;1.53;;;1.00;;
12824;SDS011;6478;50.984;11.044;2022-07-29T01:25:54;0.77;;;0.77;;
12824;SDS011;6478;50.984;11.044;2022-07-29T01:30:59;1.60;;;1.13;;
12824;SDS011;6478;50.984;11.044;2022-07-29T01:33:26;1.07;;;0.97;;
12824;SDS011;6478;50.984;11.044;2022-07-29T01:36:13;1.10;;;1.00;;
12824;SDS011;6478;50.984;11.044;2022-07-29T01:38:40;1.20;;;1.10;;
12824;SDS011;6478;50.984;11.044;2022-07-29T01:41:08;2.70;;;1.30;;
12824;SDS011;6478;50.984;11.044;2022-07-29T01:43:45;1.57;;;1.10;;
12824;SDS011;6478;50.984;11.044;2022-07-29T01:46:13;1.17;;;1.07;;
12824;SDS011;6478;50.984;11.044;2022-07-29T01:48:41;1.57;;;1.10;;
12824;SDS011;6478;50.984;11.044;2022-07-29T01:51:15;2.10;;;1.13;;
12824;SDS011;6478;50.984;11.044;2022-07-29T01:53:43;2.43;;;1.13;;
12824;SDS011;6478;50.984;11.044;2022-07-29T01:56:11;2.40;;;1.00;;
12824;SDS011;6478;50.984;11.044;2022-07-29T01:58:40;2.23;;;1.27;;
12824;SDS011;6478;50.984;11.044;2022-07-29T02:01:08;1.13;;;0.93;;
12824;SDS011;6478;50.984;11.044;2022-07-29T02:03:35;1.30;;;1.10;;
12824;SDS011;6478;50.984;11.044;2022-07-29T02:06:02;2.13;;;1.70;;
12824;SDS011;6478;50.984;11.044;2022-07-29T02:08:28;3.93;;;2.20;;
12824;SDS011;6478;50.984;11.044;2022-07-29T02:10:55;3.33;;;1.97;;
12824;SDS011;6478;50.984;11.044;2022-07-29T02:13:21;2.20;;;1.70;;
12824;SDS011;6478;50.984;11.044;2022-07-29T02:15:49;2.23;;;1.53;;
12824;SDS011;6478;50.984;11.044;2022-07-29T02:18:16;2.90;;;1.70;;
12824;SDS011;6478;50.984;11.044;2022-07-29T02:20:44;1.60;;;1.30;;
12824;SDS011;6478;50.984;11.044;2022-07-29T02:23:11;1.80;;;1.23;;
12824;SDS011;6478;50.984;11.044;2022-07-29T02:25:38;2.13;;;1.47;;
12824;SDS011;6478;50.984;11.044;2022-07-29T02:28:05;1.63;;;1.10;;
12824;SDS011;6478;50.984;11.044;2022-07-29T02:30:31;2.60;;;1.10;;
12824;SDS011;6478;50.984;11.044;2022-07-29T02:32:58;1.53;;;1.10;;
12824;SDS011;6478;50.984;11.044;2022-07-29T02:35:25;2.83;;;1.10;;
12824;SDS011;6478;50.984;11.044;2022-07-29T02:37:51;2.10;;;1.10;;
12824;SDS011;6478;50.984;11.044;2022-07-29T02:40:37;1.53;;;1.00;;
12824;SDS011;6478;50.984;11.044;2022-07-29T02:43:04;1.00;;;0.90;;
12824;SDS011;6478;50.984;11.044;2022-07-29T02:45:31;1.43;;;1.13;;
12824;SDS011;6478;50.984;11.044;2022-07-29T02:47:58;2.27;;;1.00;;
12824;SDS011;6478;50.984;11.044;2022-07-29T02:50:32;1.93;;;1.33;;
12824;SDS011;6478;50.984;11.044;2022-07-29T02:55:33;3.87;;;1.40;;
12824;SDS011;6478;50.984;11.044;2022-07-29T03:00:30;1.37;;;1.00;;
12824;SDS011;6478;50.984;11.044;2022-07-29T03:02:59;1.20;;;0.80;;
12824;SDS011;6478;50.984;11.044;2022-07-29T03:05:25;1.27;;;1.10;;
12824;SDS011;6478;50.984;11.044;2022-07-29T03:08:10;1.73;;;1.20;;
12824;SDS011;6478;50.984;11.044;2022-07-29T03:10:37;1.30;;;1.20;;
12824;SDS011;6478;50.984;11.044;2022-07-29T03:13:04;1.93;;;1.17;;
12824;SDS011;6478;50.984;11.044;2022-07-29T03:15:30;1.87;;;1.13;;
12824;SDS011;6478;50.984;11.044;2022-07-29T03:17:57;1.20;;;1.00;;
12824;SDS011;6478;50.984;11.044;2022-07-29T03:20:24;1.50;;;1.07;;
12824;SDS011;6478;50.984;11.044;2022-07-29T03:22:50;1.73;;;0.97;;
12824;SDS011;6478;50.984;11.044;2022-07-29T03:25:18;2.17;;;1.10;;
12824;SDS011;6478;50.984;11.044;2022-07-29T03:27:44;3.20;;;1.30;;
12824;SDS011;6478;50.984;11.044;2022-07-29T03:30:11;1.60;;;1.00;;
12824;SDS011;6478;50.984;11.044;2022-07-29T03:32:37;1.50;;;1.00;;
12824;SDS011;6478;50.984;11.044;2022-07-29T03:35:03;2.30;;;1.20;;
12824;SDS011;6478;50.984;11.044;2022-07-29T03:37:30;1.83;;;1.07;;
12824;SDS011;6478;50.984;11.044;2022-07-29T03:39:56;1.63;;;0.80;;
12824;SDS011;6478;50.984;11.044;2022-07-29T03:42:24;1.43;;;1.00;;
12824;SDS011;6478;50.984;11.044;2022-07-29T03:44:51;1.93;;;0.90;;
12824;SDS011;6478;50.984;11.044;2022-07-29T03:47:18;1.30;;;0.87;;
12824;SDS011;6478;50.984;11.044;2022-07-29T03:49:47;2.13;;;1.33;;
12824;SDS011;6478;50.984;11.044;2022-07-29T03:52:14;2.37;;;1.20;;
12824;SDS011;6478;50.984;11.044;2022-07-29T03:54:40;2.20;;;1.40;;
12824;SDS011;6478;50.984;11.044;2022-07-29T03:57:06;1.40;;;1.10;;
12824;SDS011;6478;50.984;11.044;2022-07-29T03:59:33;0.80;;;0.80;;
12824;SDS011;6478;50.984;11.044;2022-07-29T04:01:59;1.50;;;0.90;;
12824;SDS011;6478;50.984;11.044;2022-07-29T04:04:26;1.63;;;1.10;;
12824;SDS011;6478;50.984;11.044;2022-07-29T04:06:52;2.10;;;1.20;;
12824;SDS011;6478;50.984;11.044;2022-07-29T04:09:18;1.80;;;1.10;;
12824;SDS011;6478;50.984;11.044;2022-07-29T04:11:44;3.37;;;1.47;;
12824;SDS011;6478;50.984;11.044;2022-07-29T04:14:10;1.43;;;1.10;;
12824;SDS011;6478;50.984;11.044;2022-07-29T04:16:36;3.23;;;1.20;;
12824;SDS011;6478;50.984;11.044;2022-07-29T04:19:02;1.93;;;1.27;;
12824;SDS011;6478;50.984;11.044;2022-07-29T04:21:28;1.53;;;1.03;;
12824;SDS011;6478;50.984;11.044;2022-07-29T04:23:54;2.00;;;1.20;;
12824;SDS011;6478;50.984;11.044;2022-07-29T04:26:20;1.67;;;1.10;;
12824;SDS011;6478;50.984;11.044;2022-07-29T04:28:46;1.90;;;1.10;;
12824;SDS011;6478;50.984;11.044;2022-07-29T04:31:12;1.80;;;1.20;;
12824;SDS011;6478;50.984;11.044;2022-07-29T04:33:39;2.40;;;1.27;;
12824;SDS011;6478;50.984;11.044;2022-07-29T04:36:05;1.00;;;0.80;;
12824;SDS011;6478;50.984;11.044;2022-07-29T04:38:31;1.93;;;1.43;;
12824;SDS011;6478;50.984;11.044;2022-07-29T04:40:57;2.27;;;1.20;;
12824;SDS011;6478;50.984;11.044;2022-07-29T04:43:23;1.33;;;1.00;;
12824;SDS011;6478;50.984;11.044;2022-07-29T04:45:49;2.57;;;1.30;;
12824;SDS011;6478;50.984;11.044;2022-07-29T04:48:15;2.13;;;1.20;;
12824;SDS011;6478;50.984;11.044;2022-07-29T04:50:41;1.53;;;1.10;;
12824;SDS011;6478;50.984;11.044;2022-07-29T04:53:07;2.03;;;1.47;;
12824;SDS011;6478;50.984;11.044;2022-07-29T04:55:33;1.97;;;1.20;;
12824;SDS011;6478;50.984;11.044;2022-07-29T04:57:59;1.30;;;0.90;;
12824;SDS011;6478;50.984;11.044;2022-07-29T05:00:25;1.13;;;1.03;;
12824;SDS011;6478;50.984;11.044;2022-07-29T05:02:51;2.03;;;1.30;;
12824;SDS011;6478;50.984;11.044;2022-07-29T05:05:17;1.83;;;1.43;;
12824;SDS011;6478;50.984;11.044;2022-07-29T05:07:43;2.07;;;1.17;;
12824;SDS011;6478;50.984;11.044;2022-07-29T05:10:09;1.70;;;1.20;;
12824;SDS011;6478;50.984;11.044;2022-07-29T05:12:36;1.57;;;1.03;;
12824;SDS011;6478;50.984;11.044;2022-07-29T05:15:02;1.37;;;1.00;;
12824;SDS011;6478;50.984;11.044;2022-07-29T05:17:28;1.43;;;0.83;;
12824;SDS011;6478;50.984;11.044;2022-07-29T05:19:54;1.37;;;0.90;;
12824;SDS011;6478;50.984;11.044;2022-07-29T05:22:20;2.17;;;1.10;;
12824;SDS011;6478;50.984;11.044;2022-07-29T05:24:47;1.87;;;0.93;;
12824;SDS011;6478;50.984;11.044;2022-07-29T05:27:13;3.40;;;1.40;;
12824;SDS011;6478;50.984;11.044;2022-07-29T05:29:39;2.00;;;0.90;;
12824;SDS011;6478;50.984;11.044;2022-07-29T05:32:05;1.30;;;1.07;;
12824;SDS011;6478;50.984;11.044;2022-07-29T05:34:31;1.97;;;0.93;;
12824;SDS011;6478;50.984;11.044;2022-07-29T05:36:57;2.27;;;1.17;;
12824;SDS011;6478;50.984;11.044;2022-07-29T05:39:23;2.77;;;0.87;;
12824;SDS011;6478;50.984;11.044;2022-07-29T05:41:49;2.20;;;1.10;;
12824;SDS011;6478;50.984;11.044;2022-07-29T05:44:15;1.50;;;1.00;;
12824;SDS011;6478;50.984;11.044;2022-07-29T05:46:42;1.87;;;1.07;;
12824;SDS011;6478;50.984;11.044;2022-07-29T05:49:08;2.63;;;1.23;;
12824;SDS011;6478;50.984;11.044;2022-07-29T05:51:34;1.60;;;1.10;;
12824;SDS011;6478;50.984;11.044;2022-07-29T05:54:00;1.13;;;0.90;;
12824;SDS011;6478;50.984;11.044;2022-07-29T05:56:26;2.03;;;0.93;;
12824;SDS011;6478;50.984;11.044;2022-07-29T05:58:52;2.53;;;1.13;;
12824;SDS011;6478;50.984;11.044;2022-07-29T06:01:19;3.07;;;1.30;;
12824;SDS011;6478;50.984;11.044;2022-07-29T06:03:45;5.50;;;1.50;;
12824;SDS011;6478;50.984;11.044;2022-07-29T06:06:11;2.80;;;1.13;;
12824;SDS011;6478;50.984;11.044;2022-07-29T06:08:37;1.93;;;1.30;;
12824;SDS011;6478;50.984;11.044;2022-07-29T06:11:05;1.63;;;1.30;;
12824;SDS011;6478;50.984;11.044;2022-07-29T06:13:31;2.27;;;1.23;;
12824;SDS011;6478;50.984;11.044;2022-07-29T06:15:57;2.33;;;1.43;;
12824;SDS011;6478;50.984;11.044;2022-07-29T06:18:23;1.93;;;1.30;;
12824;SDS011;6478;50.984;11.044;2022-07-29T06:20:49;1.37;;;1.23;;
12824;SDS011;6478;50.984;11.044;2022-07-29T06:23:15;4.60;;;1.27;;
12824;SDS011;6478;50.984;11.044;2022-07-29T06:25:41;2.13;;;1.47;;
12824;SDS011;6478;50.984;11.044;2022-07-29T06:28:08;2.40;;;1.47;;
12824;SDS011;6478;50.984;11.044;2022-07-29T06:30:34;1.80;;;1.23;;
12824;SDS011;6478;50.984;11.044;2022-07-29T06:33:00;2.80;;;1.50;;
12824;SDS011;6478;50.984;11.044;2022-07-29T06:35:27;2.63;;;1.50;;
12824;SDS011;6478;50.984;11.044;2022-07-29T06:37:52;2.13;;;1.30;;
12824;SDS011;6478;50.984;11.044;2022-07-29T06:40:19;6.47;;;1.57;;
12824;SDS011;6478;50.984;11.044;2022-07-29T06:43:04;2.53;;;1.03;;
12824;SDS011;6478;50.984;11.044;2022-07-29T06:45:30;3.67;;;1.57;;
12824;SDS011;6478;50.984;11.044;2022-07-29T06:47:56;2.90;;;1.57;;
12824;SDS011;6478;50.984;11.044;2022-07-29T06:50:22;3.30;;;1.10;;
12824;SDS011;6478;50.984;11.044;2022-07-29T06:52:48;1.60;;;1.33;;
12824;SDS011;6478;50.984;11.044;2022-07-29T06:55:14;2.43;;;1.30;;
12824;SDS011;6478;50.984;11.044;2022-07-29T06:57:40;1.90;;;1.20;;
12824;SDS011;6478;50.984;11.044;2022-07-29T07:00:06;2.07;;;1.33;;
12824;SDS011;6478;50.984;11.044;2022-07-29T07:02:32;3.17;;;1.50;;
12824;SDS011;6478;50.984;11.044;2022-07-29T07:04:58;3.93;;;1.63;;
12824;SDS011;6478;50.984;11.044;2022-07-29T07:07:24;3.57;;;1.20;;
12824;SDS011;6478;50.984;11.044;2022-07-29T07:09:50;1.13;;;1.03;;
12824;SDS011;6478;50.984;11.044;2022-07-29T07:12:16;4.37;;;1.30;;
12824;SDS011;6478;50.984;11.044;2022-07-29T07:14:42;1.93;;;1.17;;
12824;SDS011;6478;50.984;11.044;2022-07-29T07:17:08;1.43;;;1.00;;
12824;SDS011;6478;50.984;11.044;2022-07-29T07:19:34;1.77;;;1.13;;
12824;SDS011;6478;50.984;11.044;2022-07-29T07:22:00;4.57;;;1.20;;
12824;SDS011;6478;50.984;11.044;2022-07-29T07:24:26;2.00;;;1.40;;
12824;SDS011;6478;50.984;11.044;2022-07-29T07:26:52;0.97;;;0.87;;
12824;SDS011;6478;50.984;11.044;2022-07-29T07:29:18;2.43;;;1.30;;
12824;SDS011;6478;50.984;11.044;2022-07-29T07:31:44;1.77;;;1.10;;
12824;SDS011;6478;50.984;11.044;2022-07-29T07:34:10;1.30;;;0.90;;
12824;SDS011;6478;50.984;11.044;2022-07-29T07:36:36;2.33;;;1.60;;
12824;SDS011;6478;50.984;11.044;2022-07-29T07:39:02;2.60;;;1.37;;
12824;SDS011;6478;50.984;11.044;2022-07-29T07:41:29;2.60;;;1.20;;
12824;SDS011;6478;50.984;11.044;2022-07-29T07:43:55;2.10;;;1.30;;
12824;SDS011;6478;50.984;11.044;2022-07-29T07:46:21;1.60;;;1.10;;
12824;SDS011;6478;50.984;11.044;2022-07-29T07:48:47;2.43;;;1.27;;
12824;SDS011;6478;50.984;11.044;2022-07-29T07:51:13;2.60;;;1.10;;
12824;SDS011;6478;50.984;11.044;2022-07-29T07:53:39;2.80;;;1.07;;
12824;SDS011;6478;50.984;11.044;2022-07-29T07:56:05;2.63;;;1.27;;
12824;SDS011;6478;50.984;11.044;2022-07-29T07:58:32;4.07;;;1.60;;
12824;SDS011;6478;50.984;11.044;2022-07-29T08:00:59;3.23;;;1.20;;
12824;SDS011;6478;50.984;11.044;2022-07-29T08:03:25;2.77;;;1.30;;
12824;SDS011;6478;50.984;11.044;2022-07-29T08:05:51;1.83;;;1.30;;
12824;SDS011;6478;50.984;11.044;2022-07-29T08:08:19;2.57;;;1.33;;
12824;SDS011;6478;50.984;11.044;2022-07-29T08:10:45;2.80;;;1.40;;
12824;SDS011;6478;50.984;11.044;2022-07-29T08:13:17;2.77;;;1.77;;
12824;SDS011;6478;50.984;11.044;2022-07-29T08:15:43;2.53;;;1.60;;
12824;SDS011;6478;50.984;11.044;2022-07-29T08:18:10;2.93;;;1.77;;
12824;SDS011;6478;50.984;11.044;2022-07-29T08:20:36;2.43;;;1.60;;
12824;SDS011;6478;50.984;11.044;2022-07-29T08:23:04;2.30;;;1.47;;
12824;SDS011;6478;50.984;11.044;2022-07-29T08:25:31;2.20;;;1.73;;
12824;SDS011;6478;50.984;11.044;2022-07-29T08:27:57;2.47;;;1.70;;
12824;SDS011;6478;50.984;11.044;2022-07-29T08:30:23;3.00;;;1.55;;
12824;SDS011;6478;50.984;11.044;2022-07-29T08:32:49;1.85;;;1.42;;
12824;SDS011;6478;50.984;11.044;2022-07-29T08:35:17;2.25;;;1.50;;
12824;SDS011;6478;50.984;11.044;2022-07-29T08:37:43;2.28;;;1.40;;
12824;SDS011;6478;50.984;11.044;2022-07-29T08:40:09;4.75;;;1.83;;
12824;SDS011;6478;50.984;11.044;2022-07-29T08:42:35;2.40;;;1.60;;
12824;SDS011;6478;50.984;11.044;2022-07-29T08:45:02;3.08;;;1.45;;
12824;SDS011;6478;50.984;11.044;2022-07-29T08:47:28;1.38;;;1.27;;
12824;SDS011;6478;50.984;11.044;2022-07-29T08:49:54;2.05;;;1.33;;
12824;SDS011;6478;50.984;11.044;2022-07-29T08:52:20;1.92;;;1.38;;
12824;SDS011;6478;50.984;11.044;2022-07-29T08:54:47;2.33;;;1.25;;
12824;SDS011;6478;50.984;11.044;2022-07-29T08:57:13;1.40;;;1.23;;
12824;SDS011;6478;50.984;11.044;2022-07-29T08:59:40;3.20;;;1.50;;
12824;SDS011;6478;50.984;11.044;2022-07-29T09:02:10;2.38;;;1.55;;
12824;SDS011;6478;50.984;11.044;2022-07-29T09:04:38;1.95;;;1.23;;
12824;SDS011;6478;50.984;11.044;2022-07-29T09:07:04;1.27;;;1.17;;
12824;SDS011;6478;50.984;11.044;2022-07-29T09:09:30;2.85;;;1.35;;
12824;SDS011;6478;50.984;11.044;2022-07-29T09:11:58;3.25;;;1.52;;
12824;SDS011;6478;50.984;11.044;2022-07-29T09:14:24;2.78;;;1.55;;
12824;SDS011;6478;50.984;11.044;2022-07-29T09:16:54;1.77;;;1.15;;
12824;SDS011;6478;50.984;11.044;2022-07-29T09:21:47;1.90;;;1.45;;
12824;SDS011;6478;50.984;11.044;2022-07-29T09:24:26;3.13;;;1.90;;
12824;SDS011;6478;50.984;11.044;2022-07-29T09:26:52;4.20;;;1.85;;
12824;SDS011;6478;50.984;11.044;2022-07-29T09:29:19;3.17;;;1.85;;
12824;SDS011;6478;50.984;11.044;2022-07-29T09:31:49;2.72;;;1.60;;
12824;SDS011;6478;50.984;11.044;2022-07-29T09:34:16;1.55;;;1.45;;
12824;SDS011;6478;50.984;11.044;2022-07-29T09:36:46;2.42;;;1.80;;
12824;SDS011;6478;50.984;11.044;2022-07-29T09:39:13;5.45;;;1.83;;
12824;SDS011;6478;50.984;11.044;2022-07-29T09:41:49;3.85;;;1.85;;
12824;SDS011;6478;50.984;11.044;2022-07-29T09:44:17;2.60;;;1.67;;
12824;SDS011;6478;50.984;11.044;2022-07-29T09:46:57;1.90;;;1.30;;
12824;SDS011;6478;50.984;11.044;2022-07-29T09:49:23;3.35;;;1.98;;
12824;SDS011;6478;50.984;11.044;2022-07-29T09:54:45;2.83;;;1.80;;
12824;SDS011;6478;50.984;11.044;2022-07-29T09:57:27;3.78;;;2.25;;
12824;SDS011;6478;50.984;11.044;2022-07-29T10:00:04;5.32;;;2.05;;
12824;SDS011;6478;50.984;11.044;2022-07-29T10:02:32;4.10;;;1.92;;
12824;SDS011;6478;50.984;11.044;2022-07-29T10:04:59;3.50;;;1.80;;
12824;SDS011;6478;50.984;11.044;2022-07-29T10:07:26;3.92;;;1.73;;
12824;SDS011;6478;50.984;11.044;2022-07-29T10:09:53;1.77;;;1.50;;
12824;SDS011;6478;50.984;11.044;2022-07-29T10:12:22;2.55;;;1.48;;
12824;SDS011;6478;50.984;11.044;2022-07-29T10:14:49;4.95;;;1.75;;
12824;SDS011;6478;50.984;11.044;2022-07-29T10:17:15;2.92;;;1.55;;
12824;SDS011;6478;50.984;11.044;2022-07-29T10:19:42;2.10;;;1.67;;
12824;SDS011;6478;50.984;11.044;2022-07-29T10:22:09;2.65;;;1.45;;
12824;SDS011;6478;50.984;11.044;2022-07-29T10:24:36;3.72;;;1.70;;
12824;SDS011;6478;50.984;11.044;2022-07-29T10:27:03;2.15;;;1.60;;
12824;SDS011;6478;50.984;11.044;2022-07-29T10:29:29;2.38;;;1.70;;
12824;SDS011;6478;50.984;11.044;2022-07-29T10:37:21;2.33;;;1.55;;
12824;SDS011;6478;50.984;11.044;2022-07-29T10:42:20;2.67;;;1.73;;
12824;SDS011;6478;50.984;11.044;2022-07-29T10:44:48;9.27;;;2.20;;
12824;SDS011;6478;50.984;11.044;2022-07-29T10:47:23;1.70;;;1.50;;
12824;SDS011;6478;50.984;11.044;2022-07-29T10:49:59;2.42;;;1.60;;
12824;SDS011;6478;50.984;11.044;2022-07-29T10:55:29;3.20;;;1.85;;
12824;SDS011;6478;50.984;11.044;2022-07-29T10:58:15;2.90;;;1.60;;
12824;SDS011;6478;50.984;11.044;2022-07-29T11:00:42;2.67;;;1.70;;
12824;SDS011;6478;50.984;11.044;2022-07-29T11:03:08;3.55;;;1.77;;
12824;SDS011;6478;50.984;11.044;2022-07-29T11:05:56;3.30;;;1.75;;
12824;SDS011;6478;50.984;11.044;2022-07-29T11:08:22;2.00;;;1.80;;
12824;SDS011;6478;50.984;11.044;2022-07-29T11:10:52;1.92;;;1.30;;
12824;SDS011;6478;50.984;11.044;2022-07-29T11:16:03;1.83;;;1.40;;
12824;SDS011;6478;50.984;11.044;2022-07-29T11:18:31;2.45;;;1.58;;
12824;SDS011;6478;50.984;11.044;2022-07-29T11:20:58;1.98;;;1.63;;
12824;SDS011;6478;50.984;11.044;2022-07-29T11:23:25;1.67;;;1.48;;
12824;SDS011;6478;50.984;11.044;2022-07-29T11:28:50;3.17;;;1.42;;
12824;SDS011;6478;50.984;11.044;2022-07-29T11:31:16;2.10;;;1.65;;
12824;SDS011;6478;50.984;11.044;2022-07-29T11:33:45;2.80;;;2.00;;
12824;SDS011;6478;50.984;11.044;2022-07-29T11:36:12;2.10;;;1.52;;
12824;SDS011;6478;50.984;11.044;2022-07-29T11:38:38;2.38;;;1.50;;
12824;SDS011;6478;50.984;11.044;2022-07-29T11:43:46;2.50;;;1.70;;
12824;SDS011;6478;50.984;11.044;2022-07-29T11:46:12;3.80;;;1.65;;
12824;SDS011;6478;50.984;11.044;2022-07-29T11:48:42;3.83;;;1.57;;
12824;SDS011;6478;50.984;11.044;2022-07-29T11:51:09;2.40;;;1.65;;
12824;SDS011;6478;50.984;11.044;2022-07-29T11:53:36;1.63;;;1.45;;
12824;SDS011;6478;50.984;11.044;2022-07-29T11:56:02;3.60;;;2.13;;
12824;SDS011;6478;50.984;11.044;2022-07-29T11:58:29;2.03;;;1.80;;
12824;SDS011;6478;50.984;11.044;2022-07-29T12:00:55;2.13;;;1.40;;
12824;SDS011;6478;50.984;11.044;2022-07-29T12:03:24;2.63;;;1.50;;
12824;SDS011;6478;50.984;11.044;2022-07-29T12:05:51;1.70;;;1.40;;
12824;SDS011;6478;50.984;11.044;2022-07-29T12:08:20;2.90;;;1.60;;
12824;SDS011;6478;50.984;11.044;2022-07-29T12:10:47;2.92;;;2.00;;
12824;SDS011;6478;50.984;11.044;2022-07-29T12:13:14;1.90;;;1.60;;
12824;SDS011;6478;50.984;11.044;2022-07-29T12:15:40;2.65;;;1.70;;
12824;SDS011;6478;50.984;11.044;2022-07-29T12:18:10;3.67;;;2.10;;
12824;SDS011;6478;50.984;11.044;2022-07-29T12:20:36;2.53;;;1.63;;
12824;SDS011;6478;50.984;11.044;2022-07-29T12:23:08;2.58;;;1.90;;
12824;SDS011;6478;50.984;11.044;2022-07-29T12:25:37;2.50;;;1.65;;
12824;SDS011;6478;50.984;11.044;2022-07-29T12:28:04;5.43;;;1.88;;
12824;SDS011;6478;50.984;11.044;2022-07-29T12:30:34;3.53;;;1.67;;
12824;SDS011;6478;50.984;11.044;2022-07-29T12:33:00;2.50;;;1.88;;
12824;SDS011;6478;50.984;11.044;2022-07-29T12:35:26;4.05;;;2.00;;
12824;SDS011;6478;50.984;11.044;2022-07-29T12:37:52;3.47;;;1.90;;
12824;SDS011;6478;50.984;11.044;2022-07-29T12:40:19;2.00;;;1.80;;
12824;SDS011;6478;50.984;11.044;2022-07-29T12:45:46;3.75;;;1.77;;
12824;SDS011;6478;50.984;11.044;2022-07-29T12:48:13;4.03;;;2.13;;
12824;SDS011;6478;50.984;11.044;2022-07-29T12:50:56;3.60;;;2.08;;
12824;SDS011;6478;50.984;11.044;2022-07-29T12:53:22;2.38;;;2.00;;
12824;SDS011;6478;50.984;11.044;2022-07-29T12:55:49;1.92;;;1.60;;
12824;SDS011;6478;50.984;11.044;2022-07-29T12:58:25;2.05;;;1.67;;
12824;SDS011;6478;50.984;11.044;2022-07-29T13:01:02;3.60;;;1.95;;
12824;SDS011;6478;50.984;11.044;2022-07-29T13:03:29;2.60;;;1.88;;
12824;SDS011;6478;50.984;11.044;2022-07-29T13:06:06;4.40;;;1.95;;
12824;SDS011;6478;50.984;11.044;2022-07-29T13:08:32;2.88;;;2.05;;
12824;SDS011;6478;50.984;11.044;2022-07-29T13:10:58;2.90;;;2.20;;
12824;SDS011;6478;50.984;11.044;2022-07-29T13:13:24;3.53;;;2.20;;
12824;SDS011;6478;50.984;11.044;2022-07-29T13:16:04;1.90;;;1.80;;
12824;SDS011;6478;50.984;11.044;2022-07-29T13:18:31;1.90;;;1.70;;
12824;SDS011;6478;50.984;11.044;2022-07-29T13:21:09;2.92;;;2.05;;
12824;SDS011;6478;50.984;11.044;2022-07-29T13:23:36;3.03;;;1.90;;
12824;SDS011;6478;50.984;11.044;2022-07-29T13:26:08;3.45;;;2.70;;
12824;SDS011;6478;50.984;11.044;2022-07-29T13:28:34;3.47;;;2.38;;
12824;SDS011;6478;50.984;11.044;2022-07-29T13:31:01;5.18;;;2.17;;
12824;SDS011;6478;50.984;11.044;2022-07-29T13:33:27;2.67;;;1.85;;
12824;SDS011;6478;50.984;11.044;2022-07-29T13:35:53;2.85;;;1.80;;
12824;SDS011;6478;50.984;11.044;2022-07-29T13:38:19;2.38;;;1.83;;
12824;SDS011;6478;50.984;11.044;2022-07-29T13:40:45;3.60;;;2.40;;
12824;SDS011;6478;50.984;11.044;2022-07-29T13:43:11;3.80;;;2.63;;
12824;SDS011;6478;50.984;11.044;2022-07-29T13:45:37;3.25;;;2.47;;
12824;SDS011;6478;50.984;11.044;2022-07-29T13:48:03;5.20;;;2.33;;
12824;SDS011;6478;50.984;11.044;2022-07-29T13:50:31;3.63;;;2.35;;
12824;SDS011;6478;50.984;11.044;2022-07-29T13:52:57;3.33;;;2.08;;
12824;SDS011;6478;50.984;11.044;2022-07-29T13:55:23;3.28;;;2.58;;
12824;SDS011;6478;50.984;11.044;2022-07-29T13:57:49;3.45;;;2.17;;
12824;SDS011;6478;50.984;11.044;2022-07-29T14:00:15;2.55;;;1.90;;
12824;SDS011;6478;50.984;11.044;2022-07-29T14:02:41;3.55;;;2.10;;
12824;SDS011;6478;50.984;11.044;2022-07-29T14:05:08;3.70;;;2.17;;
12824;SDS011;6478;50.984;11.044;2022-07-29T14:07:37;2.97;;;2.17;;
12824;SDS011;6478;50.984;11.044;2022-07-29T14:10:04;4.97;;;2.28;;
12824;SDS011;6478;50.984;11.044;2022-07-29T14:12:30;2.60;;;2.10;;
12824;SDS011;6478;50.984;11.044;2022-07-29T14:14:56;2.30;;;1.98;;
12824;SDS011;6478;50.984;11.044;2022-07-29T14:17:22;3.08;;;2.15;;
12824;SDS011;6478;50.984;11.044;2022-07-29T14:19:48;3.30;;;2.35;;
12824;SDS011;6478;50.984;11.044;2022-07-29T14:22:14;2.42;;;2.22;;
12824;SDS011;6478;50.984;11.044;2022-07-29T14:24:40;2.33;;;2.13;;
12824;SDS011;6478;50.984;11.044;2022-07-29T14:27:06;2.78;;;2.30;;
12824;SDS011;6478;50.984;11.044;2022-07-29T14:29:32;6.80;;;2.28;;
12824;SDS011;6478;50.984;11.044;2022-07-29T14:31:58;2.90;;;2.22;;
12824;SDS011;6478;50.984;11.044;2022-07-29T14:34:24;3.67;;;2.65;;
12824;SDS011;6478;50.984;11.044;2022-07-29T14:36:50;5.90;;;2.70;;
12824;SDS011;6478;50.984;11.044;2022-07-29T14:39:20;3.75;;;2.42;;
12824;SDS011;6478;50.984;11.044;2022-07-29T14:41:46;6.15;;;2.65;;
12824;SDS011;6478;50.984;11.044;2022-07-29T14:44:12;2.88;;;2.53;;
12824;SDS011;6478;50.984;11.044;2022-07-29T14:46:38;2.88;;;2.60;;
12824;SDS011;6478;50.984;11.044;2022-07-29T14:49:04;5.68;;;2.58;;
12824;SDS011;6478;50.984;11.044;2022-07-29T14:51:30;4.28;;;2.58;;
12824;SDS011;6478;50.984;11.044;2022-07-29T14:53:56;3.63;;;2.15;;
12824;SDS011;6478;50.984;11.044;2022-07-29T14:56:22;3.53;;;2.30;;
12824;SDS011;6478;50.984;11.044;2022-07-29T14:58:48;2.35;;;2.15;;
12824;SDS011;6478;50.984;11.044;2022-07-29T15:01:14;2.60;;;2.30;;
12824;SDS011;6478;50.984;11.044;2022-07-29T15:03:40;3.05;;;2.08;;
12824;SDS011;6478;50.984;11.044;2022-07-29T15:06:06;5.40;;;2.30;;
12824;SDS011;6478;50.984;11.044;2022-07-29T15:08:32;2.35;;;2.03;;
12824;SDS011;6478;50.984;11.044;2022-07-29T15:10:58;2.40;;;2.15;;
12824;SDS011;6478;50.984;11.044;2022-07-29T15:13:25;3.72;;;2.38;;
12824;SDS011;6478;50.984;11.044;2022-07-29T15:15:51;3.85;;;2.15;;
12824;SDS011;6478;50.984;11.044;2022-07-29T15:18:17;1.92;;;1.83;;
12824;SDS011;6478;50.984;11.044;2022-07-29T15:20:44;3.60;;;2.42;;
12824;SDS011;6478;50.984;11.044;2022-07-29T15:23:11;3.95;;;2.45;;
12824;SDS011;6478;50.984;11.044;2022-07-29T15:25:38;3.42;;;2.70;;
12824;SDS011;6478;50.984;11.044;2022-07-29T15:28:04;3.35;;;2.25;;
12824;SDS011;6478;50.984;11.044;2022-07-29T15:30:32;2.67;;;2.13;;